sensor_id;sensor_type;location;lat;lon;timestamp;temperature;humidity
9519;DHT22;4797;50.220;8.782;2023-12-28T00:00:33;5.00;99.80
9519;DHT22;4797;50.220;8.782;2023-12-28T00:03:01;5.00;99.80
9519;DHT22;4797;50.220;8.782;2023-12-28T00:05:29;4.90;99.80
9519;DHT22;4797;50.220;8.782;2023-12-28T00:07:58;4.90;99.80
9519;DHT22;4797;50.220;8.782;2023-12-28T00:10:27;4.80;99.80
9519;DHT22;4797;50.220;8.782;2023-12-28T00:12:55;4.60;99.80
9519;DHT22;4797;50.220;8.782;2023-12-28T00:15:23;4.60;99.80
9519;DHT22;4797;50.220;8.782;2023-12-28T00:17:51;4.60;99.80
9519;DHT22;4797;50.220;8.782;2023-12-28T00:20:19;4.60;99.80
9519;DHT22;4797;50.220;8.782;2023-12-28T00:22:47;4.50;99.80
9519;DHT22;4797;50.220;8.782;2023-12-28T00:25:16;4.50;99.80
9519;DHT22;4797;50.220;8.782;2023-12-28T00:27:44;4.40;99.80
9519;DHT22;4797;50.220;8.782;2023-12-28T00:30:13;4.40;99.80
9519;DHT22;4797;50.220;8.782;2023-12-28T00:32:44;4.40;99.80
9519;DHT22;4797;50.220;8.782;2023-12-28T00:35:12;4.50;99.80
9519;DHT22;4797;50.220;8.782;2023-12-28T00:37:40;4.50;99.80
9519;DHT22;4797;50.220;8.782;2023-12-28T00:40:09;4.50;99.80
9519;DHT22;4797;50.220;8.782;2023-12-28T00:42:39;4.60;99.80
9519;DHT22;4797;50.220;8.782;2023-12-28T00:45:08;4.60;99.80
9519;DHT22;4797;50.220;8.782;2023-12-28T00:47:36;4.60;99.80
9519;DHT22;4797;50.220;8.782;2023-12-28T00:50:05;4.70;99.80
9519;DHT22;4797;50.220;8.782;2023-12-28T00:52:33;4.70;99.80
9519;DHT22;4797;50.220;8.782;2023-12-28T00:55:01;4.70;99.80
9519;DHT22;4797;50.220;8.782;2023-12-28T00:57:29;4.70;99.80
9519;DHT22;4797;50.220;8.782;2023-12-28T00:59:59;4.80;99.80
9519;DHT22;4797;50.220;8.782;2023-12-28T01:02:27;4.80;99.80
9519;DHT22;4797;50.220;8.782;2023-12-28T01:04:55;4.80;99.80
9519;DHT22;4797;50.220;8.782;2023-12-28T01:07:23;4.80;99.80
9519;DHT22;4797;50.220;8.782;2023-12-28T01:09:51;4.90;99.80
9519;DHT22;4797;50.220;8.782;2023-12-28T01:12:19;5.00;99.80
9519;DHT22;4797;50.220;8.782;2023-12-28T01:14:47;5.20;99.80
9519;DHT22;4797;50.220;8.782;2023-12-28T01:17:16;5.40;99.80
9519;DHT22;4797;50.220;8.782;2023-12-28T01:19:46;5.60;99.80
9519;DHT22;4797;50.220;8.782;2023-12-28T01:22:14;5.70;99.80
9519;DHT22;4797;50.220;8.782;2023-12-28T01:24:41;5.80;99.80
9519;DHT22;4797;50.220;8.782;2023-12-28T01:27:09;5.90;99.80
9519;DHT22;4797;50.220;8.782;2023-12-28T01:29:37;6.00;99.80
9519;DHT22;4797;50.220;8.782;2023-12-28T01:32:05;6.10;99.80
9519;DHT22;4797;50.220;8.782;2023-12-28T01:34:34;6.30;99.80
9519;DHT22;4797;50.220;8.782;2023-12-28T01:37:03;6.40;99.80
9519;DHT22;4797;50.220;8.782;2023-12-28T01:39:31;6.40;99.80
9519;DHT22;4797;50.220;8.782;2023-12-28T01:41:59;6.50;99.80
9519;DHT22;4797;50.220;8.782;2023-12-28T01:44:27;6.50;99.80
9519;DHT22;4797;50.220;8.782;2023-12-28T01:46:55;6.50;99.80
9519;DHT22;4797;50.220;8.782;2023-12-28T01:49:23;6.50;99.80
9519;DHT22;4797;50.220;8.782;2023-12-28T01:51:53;6.50;99.80
9519;DHT22;4797;50.220;8.782;2023-12-28T01:54:22;6.60;99.80
9519;DHT22;4797;50.220;8.782;2023-12-28T01:56:50;6.70;99.80
9519;DHT22;4797;50.220;8.782;2023-12-28T01:59:18;6.70;99.80
9519;DHT22;4797;50.220;8.782;2023-12-28T02:01:46;6.80;99.80
9519;DHT22;4797;50.220;8.782;2023-12-28T02:04:14;6.80;99.80
9519;DHT22;4797;50.220;8.782;2023-12-28T02:06:42;6.80;99.80
9519;DHT22;4797;50.220;8.782;2023-12-28T02:09:12;6.90;99.80
9519;DHT22;4797;50.220;8.782;2023-12-28T02:11:40;7.00;99.80
9519;DHT22;4797;50.220;8.782;2023-12-28T02:14:08;7.00;99.80
9519;DHT22;4797;50.220;8.782;2023-12-28T02:16:40;7.10;99.80
9519;DHT22;4797;50.220;8.782;2023-12-28T02:19:18;7.20;99.80
9519;DHT22;4797;50.220;8.782;2023-12-28T02:21:47;7.20;99.80
9519;DHT22;4797;50.220;8.782;2023-12-28T02:24:17;7.30;99.80
9519;DHT22;4797;50.220;8.782;2023-12-28T02:26:47;7.30;99.80
9519;DHT22;4797;50.220;8.782;2023-12-28T02:29:15;7.30;99.80
9519;DHT22;4797;50.220;8.782;2023-12-28T02:31:46;7.20;99.80
9519;DHT22;4797;50.220;8.782;2023-12-28T02:34:21;7.20;99.80
9519;DHT22;4797;50.220;8.782;2023-12-28T02:36:51;7.10;99.80
9519;DHT22;4797;50.220;8.782;2023-12-28T02:39:20;7.00;99.80
9519;DHT22;4797;50.220;8.782;2023-12-28T02:41:50;7.00;99.80
9519;DHT22;4797;50.220;8.782;2023-12-28T02:44:19;7.00;99.80
9519;DHT22;4797;50.220;8.782;2023-12-28T02:46:47;7.10;99.80
9519;DHT22;4797;50.220;8.782;2023-12-28T02:49:15;7.10;99.80
9519;DHT22;4797;50.220;8.782;2023-12-28T02:51:43;7.10;99.80
9519;DHT22;4797;50.220;8.782;2023-12-28T02:54:11;7.20;99.80
9519;DHT22;4797;50.220;8.782;2023-12-28T02:56:39;7.20;99.80
9519;DHT22;4797;50.220;8.782;2023-12-28T02:59:09;7.20;99.80
9519;DHT22;4797;50.220;8.782;2023-12-28T03:01:37;7.20;99.80
9519;DHT22;4797;50.220;8.782;2023-12-28T03:04:05;7.20;99.80
9519;DHT22;4797;50.220;8.782;2023-12-28T03:06:33;7.20;99.80
9519;DHT22;4797;50.220;8.782;2023-12-28T03:09:02;7.30;99.80
9519;DHT22;4797;50.220;8.782;2023-12-28T03:11:30;7.30;99.80
9519;DHT22;4797;50.220;8.782;2023-12-28T03:13:58;7.40;99.80
9519;DHT22;4797;50.220;8.782;2023-12-28T03:16:27;7.50;99.80
9519;DHT22;4797;50.220;8.782;2023-12-28T03:18:58;7.50;99.80
9519;DHT22;4797;50.220;8.782;2023-12-28T03:21:26;7.60;99.80
9519;DHT22;4797;50.220;8.782;2023-12-28T03:23:54;7.60;99.80
9519;DHT22;4797;50.220;8.782;2023-12-28T03:26:21;7.60;99.80
9519;DHT22;4797;50.220;8.782;2023-12-28T03:28:49;7.70;99.80
9519;DHT22;4797;50.220;8.782;2023-12-28T03:31:17;7.70;99.80
9519;DHT22;4797;50.220;8.782;2023-12-28T03:33:47;7.70;99.80
9519;DHT22;4797;50.220;8.782;2023-12-28T03:36:18;7.80;99.80
9519;DHT22;4797;50.220;8.782;2023-12-28T03:38:46;7.80;99.80
9519;DHT22;4797;50.220;8.782;2023-12-28T03:41:17;7.90;99.80
9519;DHT22;4797;50.220;8.782;2023-12-28T03:43:45;7.90;99.80
9519;DHT22;4797;50.220;8.782;2023-12-28T03:46:14;7.90;99.80
9519;DHT22;4797;50.220;8.782;2023-12-28T03:48:41;7.90;99.80
9519;DHT22;4797;50.220;8.782;2023-12-28T03:51:14;7.90;99.80
9519;DHT22;4797;50.220;8.782;2023-12-28T03:53:42;8.00;99.80
9519;DHT22;4797;50.220;8.782;2023-12-28T03:56:18;8.00;99.80
9519;DHT22;4797;50.220;8.782;2023-12-28T03:58:46;8.00;99.80
9519;DHT22;4797;50.220;8.782;2023-12-28T04:01:15;8.10;99.80
9519;DHT22;4797;50.220;8.782;2023-12-28T04:03:43;8.20;99.80
9519;DHT22;4797;50.220;8.782;2023-12-28T04:06:11;8.20;99.80
9519;DHT22;4797;50.220;8.782;2023-12-28T04:08:42;8.20;99.80
9519;DHT22;4797;50.220;8.782;2023-12-28T04:11:09;8.20;99.80
9519;DHT22;4797;50.220;8.782;2023-12-28T04:13:37;8.20;99.80
9519;DHT22;4797;50.220;8.782;2023-12-28T04:16:06;8.10;99.80
9519;DHT22;4797;50.220;8.782;2023-12-28T04:18:36;8.10;99.80
9519;DHT22;4797;50.220;8.782;2023-12-28T04:21:04;8.10;99.80
9519;DHT22;4797;50.220;8.782;2023-12-28T10:36:10;10.70;99.80
9519;DHT22;4797;50.220;8.782;2023-12-28T10:38:39;10.80;99.80
9519;DHT22;4797;50.220;8.782;2023-12-28T10:41:09;10.80;99.80
9519;DHT22;4797;50.220;8.782;2023-12-28T10:43:48;10.80;99.80
9519;DHT22;4797;50.220;8.782;2023-12-28T10:46:24;10.80;99.80
9519;DHT22;4797;50.220;8.782;2023-12-28T10:48:57;10.90;99.80
9519;DHT22;4797;50.220;8.782;2023-12-28T10:51:27;10.90;99.80
9519;DHT22;4797;50.220;8.782;2023-12-28T10:54:03;10.90;99.80
9519;DHT22;4797;50.220;8.782;2023-12-28T10:56:38;10.90;99.80
9519;DHT22;4797;50.220;8.782;2023-12-28T10:59:16;10.90;99.80
9519;DHT22;4797;50.220;8.782;2023-12-28T11:01:47;11.00;99.80
9519;DHT22;4797;50.220;8.782;2023-12-28T11:04:20;11.00;99.80
9519;DHT22;4797;50.220;8.782;2023-12-28T11:06:51;11.10;99.80
9519;DHT22;4797;50.220;8.782;2023-12-28T11:09:20;11.20;99.80
9519;DHT22;4797;50.220;8.782;2023-12-28T11:11:50;11.30;99.80
9519;DHT22;4797;50.220;8.782;2023-12-28T11:14:19;11.30;99.80
9519;DHT22;4797;50.220;8.782;2023-12-28T11:16:48;11.30;99.80
9519;DHT22;4797;50.220;8.782;2023-12-28T11:19:16;11.50;99.80
9519;DHT22;4797;50.220;8.782;2023-12-28T11:21:45;11.60;99.80
9519;DHT22;4797;50.220;8.782;2023-12-28T11:24:15;11.60;99.80
9519;DHT22;4797;50.220;8.782;2023-12-28T11:26:43;11.70;99.80
9519;DHT22;4797;50.220;8.782;2023-12-28T11:29:12;11.70;99.80
9519;DHT22;4797;50.220;8.782;2023-12-28T11:31:40;11.70;99.80
9519;DHT22;4797;50.220;8.782;2023-12-28T11:34:08;11.80;99.80
9519;DHT22;4797;50.220;8.782;2023-12-28T11:36:48;11.80;99.80
9519;DHT22;4797;50.220;8.782;2023-12-28T11:39:25;11.70;99.80
9519;DHT22;4797;50.220;8.782;2023-12-28T11:41:59;11.60;99.80
9519;DHT22;4797;50.220;8.782;2023-12-28T11:44:29;11.60;99.80
9519;DHT22;4797;50.220;8.782;2023-12-28T11:46:58;11.60;99.80
9519;DHT22;4797;50.220;8.782;2023-12-28T11:49:26;11.60;99.80
9519;DHT22;4797;50.220;8.782;2023-12-28T11:51:56;11.60;99.80
9519;DHT22;4797;50.220;8.782;2023-12-28T11:54:26;11.50;99.80
9519;DHT22;4797;50.220;8.782;2023-12-28T11:56:54;11.60;99.80
9519;DHT22;4797;50.220;8.782;2023-12-28T11:59:22;11.70;99.80
9519;DHT22;4797;50.220;8.782;2023-12-28T12:01:50;11.70;99.80
9519;DHT22;4797;50.220;8.782;2023-12-28T12:04:20;11.70;99.80
9519;DHT22;4797;50.220;8.782;2023-12-28T12:06:48;11.70;99.80
9519;DHT22;4797;50.220;8.782;2023-12-28T12:09:18;11.80;99.80
9519;DHT22;4797;50.220;8.782;2023-12-28T12:11:52;12.00;99.80
9519;DHT22;4797;50.220;8.782;2023-12-28T12:14:20;12.00;99.80
9519;DHT22;4797;50.220;8.782;2023-12-28T12:16:48;12.20;99.80
9519;DHT22;4797;50.220;8.782;2023-12-28T12:19:16;12.10;99.80
9519;DHT22;4797;50.220;8.782;2023-12-28T12:21:45;13.10;99.80
9519;DHT22;4797;50.220;8.782;2023-12-28T12:24:13;14.30;99.80
9519;DHT22;4797;50.220;8.782;2023-12-28T12:26:41;19.50;99.80
9519;DHT22;4797;50.220;8.782;2023-12-28T12:29:11;22.00;94.60
9519;DHT22;4797;50.220;8.782;2023-12-28T12:31:39;23.20;88.90
9519;DHT22;4797;50.220;8.782;2023-12-28T12:34:09;23.30;87.50
9519;DHT22;4797;50.220;8.782;2023-12-28T12:36:37;23.60;85.60
9519;DHT22;4797;50.220;8.782;2023-12-28T12:39:05;24.30;83.80
9519;DHT22;4797;50.220;8.782;2023-12-28T12:41:34;24.30;82.20
9519;DHT22;4797;50.220;8.782;2023-12-28T12:44:02;24.10;81.60
9519;DHT22;4797;50.220;8.782;2023-12-28T12:46:32;24.60;82.20
9519;DHT22;4797;50.220;8.782;2023-12-28T12:49:00;25.20;79.20
9519;DHT22;4797;50.220;8.782;2023-12-28T12:51:29;25.80;77.50
9519;DHT22;4797;50.220;8.782;2023-12-28T12:53:57;25.90;75.30
9519;DHT22;4797;50.220;8.782;2023-12-28T12:56:26;25.00;77.20
9519;DHT22;4797;50.220;8.782;2023-12-28T12:58:55;24.60;78.50
9519;DHT22;4797;50.220;8.782;2023-12-28T13:01:24;24.50;78.40
9519;DHT22;4797;50.220;8.782;2023-12-28T13:03:53;24.90;77.70
9519;DHT22;4797;50.220;8.782;2023-12-28T13:06:23;24.10;78.50
9519;DHT22;4797;50.220;8.782;2023-12-28T13:08:51;22.40;82.40
9519;DHT22;4797;50.220;8.782;2023-12-28T13:11:19;20.70;86.30
9519;DHT22;4797;50.220;8.782;2023-12-28T13:13:52;19.50;90.50
9519;DHT22;4797;50.220;8.782;2023-12-28T13:16:20;19.40;91.30
9519;DHT22;4797;50.220;8.782;2023-12-28T13:18:48;17.70;95.50
9519;DHT22;4797;50.220;8.782;2023-12-28T13:21:18;17.00;99.30
9519;DHT22;4797;50.220;8.782;2023-12-28T13:23:46;17.40;99.80
9519;DHT22;4797;50.220;8.782;2023-12-28T13:26:13;17.80;98.70
9519;DHT22;4797;50.220;8.782;2023-12-28T13:28:41;18.50;97.10
9519;DHT22;4797;50.220;8.782;2023-12-28T13:31:10;17.80;97.00
9519;DHT22;4797;50.220;8.782;2023-12-28T13:33:39;16.60;99.80
9519;DHT22;4797;50.220;8.782;2023-12-28T13:36:07;16.20;99.80
9519;DHT22;4797;50.220;8.782;2023-12-28T13:38:37;14.80;99.80
9519;DHT22;4797;50.220;8.782;2023-12-28T13:41:05;13.90;99.80
9519;DHT22;4797;50.220;8.782;2023-12-28T13:43:33;13.50;99.80
9519;DHT22;4797;50.220;8.782;2023-12-28T13:46:00;13.40;99.80
9519;DHT22;4797;50.220;8.782;2023-12-28T13:48:30;13.60;99.80
9519;DHT22;4797;50.220;8.782;2023-12-28T13:50:59;13.30;99.80
9519;DHT22;4797;50.220;8.782;2023-12-28T13:53:27;12.80;99.80
9519;DHT22;4797;50.220;8.782;2023-12-28T13:55:56;12.40;99.80
9519;DHT22;4797;50.220;8.782;2023-12-28T13:58:24;12.00;99.80
9519;DHT22;4797;50.220;8.782;2023-12-28T14:00:52;11.90;99.80
9519;DHT22;4797;50.220;8.782;2023-12-28T14:03:20;11.80;99.80
9519;DHT22;4797;50.220;8.782;2023-12-28T14:05:48;11.70;99.80
9519;DHT22;4797;50.220;8.782;2023-12-28T14:08:17;11.70;99.80
9519;DHT22;4797;50.220;8.782;2023-12-28T14:14:30;11.90;99.80
9519;DHT22;4797;50.220;8.782;2023-12-28T14:16:58;12.50;99.80
9519;DHT22;4797;50.220;8.782;2023-12-28T14:19:26;12.40;99.80
9519;DHT22;4797;50.220;8.782;2023-12-28T14:21:54;12.20;99.80
9519;DHT22;4797;50.220;8.782;2023-12-28T14:24:23;12.10;99.80
9519;DHT22;4797;50.220;8.782;2023-12-28T14:26:53;11.90;99.80
9519;DHT22;4797;50.220;8.782;2023-12-28T14:29:22;11.80;99.80
9519;DHT22;4797;50.220;8.782;2023-12-28T14:31:53;11.70;99.80
9519;DHT22;4797;50.220;8.782;2023-12-28T14:34:21;11.60;99.80
9519;DHT22;4797;50.220;8.782;2023-12-28T14:36:50;11.40;99.80
9519;DHT22;4797;50.220;8.782;2023-12-28T14:39:20;11.40;99.80
9519;DHT22;4797;50.220;8.782;2023-12-28T14:41:48;11.30;99.80
9519;DHT22;4797;50.220;8.782;2023-12-28T14:44:16;11.20;99.80
9519;DHT22;4797;50.220;8.782;2023-12-28T14:46:44;11.00;99.80
9519;DHT22;4797;50.220;8.782;2023-12-28T14:49:13;10.90;99.80
9519;DHT22;4797;50.220;8.782;2023-12-28T14:51:41;10.90;99.80
9519;DHT22;4797;50.220;8.782;2023-12-28T14:54:09;10.80;99.80
9519;DHT22;4797;50.220;8.782;2023-12-28T14:56:37;10.80;99.80
9519;DHT22;4797;50.220;8.782;2023-12-28T14:59:17;10.80;99.80
9519;DHT22;4797;50.220;8.782;2023-12-28T15:01:45;10.70;99.80
9519;DHT22;4797;50.220;8.782;2023-12-28T15:04:14;10.70;99.80
9519;DHT22;4797;50.220;8.782;2023-12-28T15:06:42;10.70;99.80
9519;DHT22;4797;50.220;8.782;2023-12-28T15:09:10;10.70;99.80
9519;DHT22;4797;50.220;8.782;2023-12-28T15:11:39;10.60;99.80
9519;DHT22;4797;50.220;8.782;2023-12-28T15:14:15;10.70;99.80
9519;DHT22;4797;50.220;8.782;2023-12-28T15:16:44;10.60;99.80
9519;DHT22;4797;50.220;8.782;2023-12-28T15:19:14;10.60;99.80
9519;DHT22;4797;50.220;8.782;2023-12-28T15:21:43;10.50;99.80
9519;DHT22;4797;50.220;8.782;2023-12-28T15:24:13;10.60;99.80
9519;DHT22;4797;50.220;8.782;2023-12-28T15:26:41;10.50;99.80
9519;DHT22;4797;50.220;8.782;2023-12-28T15:29:09;10.50;99.80
9519;DHT22;4797;50.220;8.782;2023-12-28T15:31:39;10.40;99.80
9519;DHT22;4797;50.220;8.782;2023-12-28T15:34:07;10.30;99.80
9519;DHT22;4797;50.220;8.782;2023-12-28T15:36:36;10.20;99.80
9519;DHT22;4797;50.220;8.782;2023-12-28T15:39:04;10.10;99.80
9519;DHT22;4797;50.220;8.782;2023-12-28T15:41:32;10.00;99.80
9519;DHT22;4797;50.220;8.782;2023-12-28T15:44:00;10.00;99.80
9519;DHT22;4797;50.220;8.782;2023-12-28T15:46:28;10.00;99.80
9519;DHT22;4797;50.220;8.782;2023-12-28T15:48:56;10.10;99.80
9519;DHT22;4797;50.220;8.782;2023-12-28T15:51:24;10.10;99.80
9519;DHT22;4797;50.220;8.782;2023-12-28T16:31:58;10.00;99.80
9519;DHT22;4797;50.220;8.782;2023-12-28T16:34:27;9.80;99.80
9519;DHT22;4797;50.220;8.782;2023-12-28T16:36:56;9.70;99.80
9519;DHT22;4797;50.220;8.782;2023-12-28T16:39:24;9.70;99.80
9519;DHT22;4797;50.220;8.782;2023-12-28T16:41:52;9.70;99.80
9519;DHT22;4797;50.220;8.782;2023-12-28T16:44:20;9.60;99.80
9519;DHT22;4797;50.220;8.782;2023-12-28T16:46:48;9.50;99.80
9519;DHT22;4797;50.220;8.782;2023-12-28T16:49:18;9.50;99.80
9519;DHT22;4797;50.220;8.782;2023-12-28T16:51:46;9.50;99.80
9519;DHT22;4797;50.220;8.782;2023-12-28T16:54:15;9.50;99.80
9519;DHT22;4797;50.220;8.782;2023-12-28T16:56:44;9.50;99.80
9519;DHT22;4797;50.220;8.782;2023-12-28T16:59:12;9.50;99.80
9519;DHT22;4797;50.220;8.782;2023-12-28T17:01:42;9.50;99.80
9519;DHT22;4797;50.220;8.782;2023-12-28T17:04:10;9.50;99.80
9519;DHT22;4797;50.220;8.782;2023-12-28T17:06:39;9.40;99.80
9519;DHT22;4797;50.220;8.782;2023-12-28T17:09:07;9.30;99.80
9519;DHT22;4797;50.220;8.782;2023-12-28T17:11:36;9.20;99.80
9519;DHT22;4797;50.220;8.782;2023-12-28T17:14:05;9.20;99.80
9519;DHT22;4797;50.220;8.782;2023-12-28T17:16:33;9.10;99.80
9519;DHT22;4797;50.220;8.782;2023-12-28T17:19:02;9.00;99.80
9519;DHT22;4797;50.220;8.782;2023-12-28T17:21:31;9.00;99.80
9519;DHT22;4797;50.220;8.782;2023-12-28T17:24:03;8.90;99.80
9519;DHT22;4797;50.220;8.782;2023-12-28T17:26:34;8.90;99.80
9519;DHT22;4797;50.220;8.782;2023-12-28T17:29:05;8.90;99.80
9519;DHT22;4797;50.220;8.782;2023-12-28T17:31:35;8.80;99.80
9519;DHT22;4797;50.220;8.782;2023-12-28T17:34:05;8.80;99.80
9519;DHT22;4797;50.220;8.782;2023-12-28T17:36:34;8.80;99.80
9519;DHT22;4797;50.220;8.782;2023-12-28T17:39:07;8.80;99.80
9519;DHT22;4797;50.220;8.782;2023-12-28T17:41:38;8.80;99.80
9519;DHT22;4797;50.220;8.782;2023-12-28T17:44:10;8.80;99.80
9519;DHT22;4797;50.220;8.782;2023-12-28T17:46:47;8.70;99.80
9519;DHT22;4797;50.220;8.782;2023-12-28T17:49:21;8.70;99.80
9519;DHT22;4797;50.220;8.782;2023-12-28T17:51:52;8.70;99.80
9519;DHT22;4797;50.220;8.782;2023-12-28T17:54:23;8.60;99.80
9519;DHT22;4797;50.220;8.782;2023-12-28T17:56:51;8.50;99.80
9519;DHT22;4797;50.220;8.782;2023-12-28T17:59:20;8.40;99.80
9519;DHT22;4797;50.220;8.782;2023-12-28T18:01:55;8.40;99.80
9519;DHT22;4797;50.220;8.782;2023-12-28T18:04:23;8.40;99.80
9519;DHT22;4797;50.220;8.782;2023-12-28T18:06:51;8.40;99.80
9519;DHT22;4797;50.220;8.782;2023-12-28T18:09:20;8.40;99.80
9519;DHT22;4797;50.220;8.782;2023-12-28T18:11:50;8.40;99.80
9519;DHT22;4797;50.220;8.782;2023-12-28T18:14:18;8.40;99.80
9519;DHT22;4797;50.220;8.782;2023-12-28T18:16:48;8.40;99.80
9519;DHT22;4797;50.220;8.782;2023-12-28T18:19:15;8.30;99.80
9519;DHT22;4797;50.220;8.782;2023-12-28T18:21:43;8.30;99.80
9519;DHT22;4797;50.220;8.782;2023-12-28T18:24:14;8.40;99.80
9519;DHT22;4797;50.220;8.782;2023-12-28T18:26:42;8.40;99.80
9519;DHT22;4797;50.220;8.782;2023-12-28T18:29:13;8.40;99.80
9519;DHT22;4797;50.220;8.782;2023-12-28T18:31:41;8.40;99.80
9519;DHT22;4797;50.220;8.782;2023-12-28T18:34:09;8.40;99.80
9519;DHT22;4797;50.220;8.782;2023-12-28T18:36:38;8.40;99.80
9519;DHT22;4797;50.220;8.782;2023-12-28T18:39:07;8.40;99.80
9519;DHT22;4797;50.220;8.782;2023-12-28T18:41:36;8.40;99.80
9519;DHT22;4797;50.220;8.782;2023-12-28T18:44:07;8.40;99.80
9519;DHT22;4797;50.220;8.782;2023-12-28T18:46:36;8.40;99.80
9519;DHT22;4797;50.220;8.782;2023-12-28T18:49:04;8.40;99.80
9519;DHT22;4797;50.220;8.782;2023-12-28T18:51:32;8.40;99.80
9519;DHT22;4797;50.220;8.782;2023-12-28T18:54:00;8.40;99.80
9519;DHT22;4797;50.220;8.782;2023-12-28T18:56:28;8.40;99.80
9519;DHT22;4797;50.220;8.782;2023-12-28T18:58:56;8.40;99.80
9519;DHT22;4797;50.220;8.782;2023-12-28T19:01:24;8.40;99.80
9519;DHT22;4797;50.220;8.782;2023-12-28T19:03:53;8.40;99.80
9519;DHT22;4797;50.220;8.782;2023-12-28T19:06:23;8.30;99.80
9519;DHT22;4797;50.220;8.782;2023-12-28T19:08:51;8.30;99.80
9519;DHT22;4797;50.220;8.782;2023-12-28T19:11:22;8.30;99.80
9519;DHT22;4797;50.220;8.782;2023-12-28T19:13:50;8.20;99.80
9519;DHT22;4797;50.220;8.782;2023-12-28T19:16:19;8.30;99.80
9519;DHT22;4797;50.220;8.782;2023-12-28T19:18:48;8.40;99.80
9519;DHT22;4797;50.220;8.782;2023-12-28T19:21:19;8.50;99.80
9519;DHT22;4797;50.220;8.782;2023-12-28T19:24:03;8.60;99.80
9519;DHT22;4797;50.220;8.782;2023-12-28T19:26:32;8.70;99.80
9519;DHT22;4797;50.220;8.782;2023-12-28T19:28:59;8.80;99.80
9519;DHT22;4797;50.220;8.782;2023-12-28T19:31:27;8.80;99.80
9519;DHT22;4797;50.220;8.782;2023-12-28T19:33:55;8.80;99.80
9519;DHT22;4797;50.220;8.782;2023-12-28T19:36:25;8.80;99.80
9519;DHT22;4797;50.220;8.782;2023-12-28T19:38:53;8.80;99.80
9519;DHT22;4797;50.220;8.782;2023-12-28T19:41:21;8.80;99.80
9519;DHT22;4797;50.220;8.782;2023-12-28T19:43:49;8.80;99.80
9519;DHT22;4797;50.220;8.782;2023-12-28T19:46:18;8.80;99.80
9519;DHT22;4797;50.220;8.782;2023-12-28T19:48:46;8.80;99.80
9519;DHT22;4797;50.220;8.782;2023-12-28T19:51:14;8.80;99.80
9519;DHT22;4797;50.220;8.782;2023-12-28T19:53:44;8.70;99.80
9519;DHT22;4797;50.220;8.782;2023-12-28T19:56:12;8.70;99.80
9519;DHT22;4797;50.220;8.782;2023-12-28T19:58:40;8.70;99.80
9519;DHT22;4797;50.220;8.782;2023-12-28T20:01:08;8.60;99.80
9519;DHT22;4797;50.220;8.782;2023-12-28T20:03:37;8.50;99.80
9519;DHT22;4797;50.220;8.782;2023-12-28T20:06:08;8.50;99.80
9519;DHT22;4797;50.220;8.782;2023-12-28T20:08:36;8.60;99.80
9519;DHT22;4797;50.220;8.782;2023-12-28T20:11:08;8.70;99.80
9519;DHT22;4797;50.220;8.782;2023-12-28T20:13:36;8.70;99.80
9519;DHT22;4797;50.220;8.782;2023-12-28T20:16:05;8.80;99.80
9519;DHT22;4797;50.220;8.782;2023-12-28T20:18:33;8.80;99.80
9519;DHT22;4797;50.220;8.782;2023-12-28T20:21:01;8.80;99.80
9519;DHT22;4797;50.220;8.782;2023-12-28T20:23:29;8.90;99.80
9519;DHT22;4797;50.220;8.782;2023-12-28T20:25:57;8.80;99.80
9519;DHT22;4797;50.220;8.782;2023-12-28T20:35:59;8.80;99.80
9519;DHT22;4797;50.220;8.782;2023-12-28T20:38:28;8.80;99.80
9519;DHT22;4797;50.220;8.782;2023-12-28T20:40:56;8.90;99.80
9519;DHT22;4797;50.220;8.782;2023-12-28T20:43:25;8.90;99.80
9519;DHT22;4797;50.220;8.782;2023-12-28T20:45:53;9.00;99.80
9519;DHT22;4797;50.220;8.782;2023-12-28T20:48:21;9.00;99.80
9519;DHT22;4797;50.220;8.782;2023-12-28T21:02:13;9.00;99.80
9519;DHT22;4797;50.220;8.782;2023-12-28T21:04:41;9.00;99.80
9519;DHT22;4797;50.220;8.782;2023-12-28T21:07:09;9.10;99.80
9519;DHT22;4797;50.220;8.782;2023-12-28T21:09:37;9.00;99.80
9519;DHT22;4797;50.220;8.782;2023-12-28T21:12:08;9.10;99.80
9519;DHT22;4797;50.220;8.782;2023-12-28T21:14:36;9.00;99.80
9519;DHT22;4797;50.220;8.782;2023-12-28T21:17:06;8.90;99.80
9519;DHT22;4797;50.220;8.782;2023-12-28T21:19:36;8.90;99.80
9519;DHT22;4797;50.220;8.782;2023-12-28T21:22:14;9.00;99.80
9519;DHT22;4797;50.220;8.782;2023-12-28T21:24:42;9.00;99.80
9519;DHT22;4797;50.220;8.782;2023-12-28T21:27:41;9.10;99.80
9519;DHT22;4797;50.220;8.782;2023-12-28T21:30:09;9.20;99.80
9519;DHT22;4797;50.220;8.782;2023-12-28T21:32:38;9.20;99.80
9519;DHT22;4797;50.220;8.782;2023-12-28T21:35:08;9.30;99.80
9519;DHT22;4797;50.220;8.782;2023-12-28T21:48:21;9.30;99.80
9519;DHT22;4797;50.220;8.782;2023-12-28T21:50:51;9.30;99.80
9519;DHT22;4797;50.220;8.782;2023-12-28T21:53:19;9.30;99.80
9519;DHT22;4797;50.220;8.782;2023-12-28T21:55:47;9.30;99.80
9519;DHT22;4797;50.220;8.782;2023-12-28T21:58:16;9.30;99.80
9519;DHT22;4797;50.220;8.782;2023-12-28T22:00:44;9.20;99.80
9519;DHT22;4797;50.220;8.782;2023-12-28T22:03:12;9.30;99.80
9519;DHT22;4797;50.220;8.782;2023-12-28T22:05:40;9.30;99.80
9519;DHT22;4797;50.220;8.782;2023-12-28T22:08:11;9.30;99.80
9519;DHT22;4797;50.220;8.782;2023-12-28T22:10:40;9.30;99.80
9519;DHT22;4797;50.220;8.782;2023-12-28T22:13:09;9.30;99.80
9519;DHT22;4797;50.220;8.782;2023-12-28T22:15:37;9.40;99.80
9519;DHT22;4797;50.220;8.782;2023-12-28T22:18:05;9.40;99.80
9519;DHT22;4797;50.220;8.782;2023-12-28T22:20:34;9.30;99.80
9519;DHT22;4797;50.220;8.782;2023-12-28T22:23:03;9.40;99.80
9519;DHT22;4797;50.220;8.782;2023-12-28T22:25:32;9.30;99.80
9519;DHT22;4797;50.220;8.782;2023-12-28T22:28:00;9.30;99.80
9519;DHT22;4797;50.220;8.782;2023-12-28T22:30:28;9.40;99.80
9519;DHT22;4797;50.220;8.782;2023-12-28T22:32:58;9.40;99.80
9519;DHT22;4797;50.220;8.782;2023-12-28T22:35:27;9.40;99.80
9519;DHT22;4797;50.220;8.782;2023-12-28T22:37:54;9.40;99.80
9519;DHT22;4797;50.220;8.782;2023-12-28T22:40:23;9.40;99.80
9519;DHT22;4797;50.220;8.782;2023-12-28T22:42:52;9.40;99.80
9519;DHT22;4797;50.220;8.782;2023-12-28T22:45:22;9.30;99.80
9519;DHT22;4797;50.220;8.782;2023-12-28T22:47:49;9.30;99.80
9519;DHT22;4797;50.220;8.782;2023-12-28T22:50:17;9.30;99.80
9519;DHT22;4797;50.220;8.782;2023-12-28T22:52:45;9.40;99.80
9519;DHT22;4797;50.220;8.782;2023-12-28T22:55:13;9.40;99.80
9519;DHT22;4797;50.220;8.782;2023-12-28T23:00:23;9.40;99.80
9519;DHT22;4797;50.220;8.782;2023-12-28T23:02:59;9.40;99.80
9519;DHT22;4797;50.220;8.782;2023-12-28T23:05:28;9.40;99.80
9519;DHT22;4797;50.220;8.782;2023-12-28T23:07:56;9.50;99.80
9519;DHT22;4797;50.220;8.782;2023-12-28T23:10:24;9.50;99.80
9519;DHT22;4797;50.220;8.782;2023-12-28T23:12:53;9.40;99.80
9519;DHT22;4797;50.220;8.782;2023-12-28T23:15:22;9.40;99.80
9519;DHT22;4797;50.220;8.782;2023-12-28T23:17:53;9.40;99.80
9519;DHT22;4797;50.220;8.782;2023-12-28T23:20:21;9.40;99.80
9519;DHT22;4797;50.220;8.782;2023-12-28T23:22:49;9.40;99.80
9519;DHT22;4797;50.220;8.782;2023-12-28T23:25:17;9.40;99.80
9519;DHT22;4797;50.220;8.782;2023-12-28T23:27:46;9.40;99.80
9519;DHT22;4797;50.220;8.782;2023-12-28T23:30:16;9.40;99.80
9519;DHT22;4797;50.220;8.782;2023-12-28T23:32:45;9.40;99.80
9519;DHT22;4797;50.220;8.782;2023-12-28T23:35:13;9.40;99.80
9519;DHT22;4797;50.220;8.782;2023-12-28T23:37:41;9.50;99.80
9519;DHT22;4797;50.220;8.782;2023-12-28T23:40:10;9.40;99.80
9519;DHT22;4797;50.220;8.782;2023-12-28T23:42:38;9.40;99.80
9519;DHT22;4797;50.220;8.782;2023-12-28T23:45:07;9.50;99.80
9519;DHT22;4797;50.220;8.782;2023-12-28T23:47:35;9.50;99.80
9519;DHT22;4797;50.220;8.782;2023-12-28T23:50:05;9.50;99.80